• Join FlightAware (Why Join?)
  • Login
  • US Flag 
04:42AM EDT


 

Airport Tracker/Info


-or-


 

Live Flight TrackerFlight Track Log ✈ N295DS ✈ 09-Aug-2014 ✈ KHYX - KMCD

Flight Track Log - Related Links

Times and Time Zones

All times are in EDT time to prevent confusion due to time zone crossing. See the N295DS flight status page for this flight to view local times or setup timezone preferences in your user account.

Time Position Orientation Groundspeed Altitude Reporting Facility
EDT Latitude Longitude Course Direction KTS MPH feet Rate Location/Type
08:45AM 43.5586 -83.8697 352° North 223 257 5,600  Level Cleveland Center
08:46AM 43.6194 -83.8972 342° North 219 252 8,200 2,280 Climbing Cleveland Center
08:47AM 43.6756 -83.9150 347° North 229 264 10,300 2,040 Climbing Cleveland Center
08:48AM 43.7378 -83.9367 346° North 229 264 12,500 2,100 Climbing Cleveland Center
08:49AM 43.5073 -83.8810 350° North  Level FlightAware Approximate
08:49AM 43.8008 -83.9544 348° North 229 264 14,700  Level Cleveland Center
08:50AM 43.5796 -83.8959 352° North  Level FlightAware Approximate
08:50AM 43.8692 -83.9756 347° North 233 268 16,000  Level Cleveland Center
08:50AM 43.9292 -83.9956 347° North 258 297 17,400 1,800 Climbing Minneapolis Center
08:52AM 44.0142 -84.0222 347° North 265 305 19,400 1,620 Climbing Minneapolis Center
08:53AM 44.0844 -84.0456 347° North 261 300 20,800 1,200 Climbing Minneapolis Center
08:54AM 44.1642 -84.0708 347° North 274 315 21,900 540 Climbing Minneapolis Center
08:55AM 44.2447 -84.0967 347° North 291 335 22,000  Climbing Minneapolis Center
08:56AM 44.3356 -84.1267 347° North 326 375 22,000  Level Minneapolis Center
08:57AM 44.4275 -84.1569 347° North 335 386 22,000  Level Minneapolis Center
08:58AM 44.5200 -84.1867 347° North 339 390 22,000  Level Minneapolis Center
08:59AM 44.6283 -84.2219 347° North 338 389 22,000 -180 Level Minneapolis Center
09:00AM 44.7183 -84.2514 347° North 337 388 21,700 -360 Descending Minneapolis Center
09:01AM 44.8089 -84.2808 347° North 336 387 21,300 -420 Descending Minneapolis Center
09:02AM 44.9011 -84.3119 347° North 337 388 20,900 -840 Descending Minneapolis Center
09:03AM 44.9922 -84.3425 347° North 337 388 19,600 -1,620 Descending Minneapolis Center
09:04AM 45.0936 -84.3769 347° North 329 379 17,600 -1,980 Descending Minneapolis Center
09:05AM 45.1794 -84.4061 347° North 322 371 15,600 -2,040 Descending Minneapolis Center
09:06AM 45.2697 -84.4369 346° North 313 360 13,500 -1,920 Descending Minneapolis Center
09:07AM 45.3497 -84.4631 347° North 300 345 11,700 -1,800 Descending Minneapolis Center
09:08AM 45.4283 -84.4903 346° North 295 339 9,900 -1,860 Descending Minneapolis Center
09:09AM 45.5119 -84.5178 347° North 293 337 8,000 -1,800 Descending Minneapolis Center
09:10AM 45.5861 -84.5431 347° North 279 321 6,300 -1,680 Descending Minneapolis Center